createdAt,value
2023-01-02T00:03:26.137Z,26.50
2023-01-02T00:08:34.923Z,27.40
2023-01-02T00:13:41.845Z,23.60
2023-01-02T00:18:49.003Z,23.30
2023-01-02T00:23:55.907Z,28.80
2023-01-02T00:29:03.448Z,25.50
2023-01-02T00:34:10.384Z,27.30
2023-01-02T00:39:17.434Z,27.80
2023-01-02T00:44:24.650Z,25.00
2023-01-02T00:49:32.841Z,26.90
2023-01-02T00:54:39.807Z,26.40
2023-01-02T00:59:46.830Z,23.10
2023-01-02T01:04:54.246Z,24.20
2023-01-02T01:10:01.286Z,24.60
2023-01-02T01:15:11.340Z,26.30
2023-01-02T01:20:18.492Z,24.10
2023-01-02T01:25:25.443Z,19.00
2023-01-02T01:30:32.310Z,20.00
2023-01-02T01:35:39.717Z,23.30
2023-01-02T01:40:46.559Z,21.80
2023-01-02T01:45:53.627Z,20.80
2023-01-02T01:51:01.093Z,19.30
2023-01-02T01:56:11.938Z,19.70
2023-01-02T02:01:20.087Z,18.70
2023-01-02T02:06:27.406Z,19.70
2023-01-02T02:11:35.675Z,21.20
2023-01-02T02:16:54.323Z,24.00
2023-01-02T02:22:25.072Z,21.60
2023-01-02T02:28:00.771Z,30.10
2023-01-02T02:33:30.535Z,24.60
2023-01-02T02:38:52.538Z,29.20
2023-01-02T02:44:08.221Z,24.60
2023-01-02T02:49:22.722Z,32.40
2023-01-02T02:54:37.510Z,27.10
2023-01-02T02:59:44.581Z,26.60
2023-01-02T03:04:54.674Z,32.00
2023-01-02T03:10:16.610Z,28.60
2023-01-02T03:15:30.688Z,29.30
2023-01-02T03:20:42.517Z,35.80
2023-01-02T03:30:58.791Z,28.90
2023-01-02T03:36:10.973Z,26.20
2023-01-02T03:41:22.165Z,27.70
2023-01-02T03:46:36.067Z,33.70
2023-01-02T03:51:43.163Z,28.10
2023-01-02T03:56:58.673Z,28.30
2023-01-02T04:02:13.706Z,28.60
2023-01-02T04:07:27.268Z,29.40
2023-01-02T04:12:39.450Z,24.50
2023-01-02T04:17:48.776Z,26.20
2023-01-02T04:22:59.619Z,23.70
2023-01-02T04:28:12.610Z,26.30
2023-01-02T04:33:21.879Z,20.70
2023-01-02T04:38:29.310Z,23.50
2023-01-02T04:43:36.230Z,23.80
2023-01-02T04:48:43.205Z,22.10
2023-01-02T04:53:52.065Z,21.60
2023-01-02T04:58:59.044Z,20.90
2023-01-02T05:04:06.054Z,21.10
2023-01-02T05:09:13.400Z,24.40
2023-01-02T05:14:20.677Z,24.50
2023-01-02T05:19:27.662Z,23.70
2023-01-02T05:24:34.752Z,23.40
2023-01-02T05:29:42.179Z,21.30
2023-01-02T05:34:49.183Z,23.30
2023-01-02T05:39:56.141Z,23.80
2023-01-02T05:45:03.180Z,22.00
2023-01-02T05:50:11.235Z,24.20
2023-01-02T05:55:18.343Z,25.70
2023-01-02T06:00:25.595Z,22.60
2023-01-02T06:05:33.399Z,20.50
2023-01-02T06:10:40.366Z,23.10
2023-01-02T06:15:47.782Z,24.20
2023-01-02T06:20:58.900Z,24.70
2023-01-02T06:26:08.818Z,23.40
2023-01-02T06:31:18.369Z,19.90
2023-01-02T06:36:25.591Z,23.10
2023-01-02T06:41:33.276Z,21.50
2023-01-02T06:46:40.769Z,20.50
2023-01-02T06:51:47.764Z,22.50
2023-01-02T06:56:55.168Z,19.00
2023-01-02T07:02:02.569Z,19.50
2023-01-02T07:07:09.845Z,22.70
2023-01-02T07:12:17.215Z,22.30
2023-01-02T07:17:25.199Z,25.30
2023-01-02T07:22:32.293Z,25.40
2023-01-02T07:27:39.277Z,28.90
2023-01-02T07:32:46.281Z,24.30
2023-01-02T07:37:54.105Z,18.30
2023-01-02T07:43:01.225Z,23.20
2023-01-02T07:48:08.627Z,17.40
2023-01-02T07:53:17.880Z,19.90
2023-01-02T07:58:25.611Z,20.30
2023-01-02T08:03:34.262Z,24.00
2023-01-02T08:08:41.753Z,24.30
2023-01-02T08:13:49.103Z,27.20
2023-01-02T08:18:57.444Z,21.80
2023-01-02T08:24:04.922Z,24.90
2023-01-02T08:29:11.836Z,16.50
2023-01-02T08:34:18.811Z,24.90
2023-01-02T08:39:25.801Z,22.10
2023-01-02T08:44:32.833Z,23.80
2023-01-02T08:49:42.012Z,19.60
2023-01-02T08:54:48.885Z,17.10
2023-01-02T08:59:56.958Z,15.90
2023-01-02T09:05:03.842Z,14.70
2023-01-02T09:10:12.360Z,17.60
2023-01-02T09:15:19.714Z,19.10
2023-01-02T09:20:26.785Z,17.20
2023-01-02T09:25:33.615Z,15.30
2023-01-02T09:30:40.559Z,12.90
2023-01-02T09:35:48.135Z,14.70
2023-01-02T09:40:57.005Z,15.90
2023-01-02T09:46:06.932Z,17.40
2023-01-02T09:51:14.756Z,15.40
2023-01-02T09:56:30.405Z,15.20
2023-01-02T10:01:52.624Z,22.90
2023-01-02T10:07:09.211Z,15.50
2023-01-02T10:12:23.143Z,24.00
2023-01-02T10:17:36.082Z,20.50
2023-01-02T10:22:48.757Z,17.30
2023-01-02T10:27:59.752Z,13.90
2023-01-02T10:33:12.303Z,11.80
2023-01-02T10:38:21.470Z,14.70
2023-01-02T10:43:29.466Z,11.50
2023-01-02T10:48:38.466Z,18.10
2023-01-02T10:53:59.776Z,17.10
2023-01-02T10:59:19.538Z,15.60
2023-01-02T11:04:28.594Z,11.90
2023-01-02T11:09:37.038Z,12.80
2023-01-02T11:14:44.563Z,13.60
2023-01-02T11:19:53.319Z,11.30
2023-01-02T11:25:03.452Z,15.20
2023-01-02T11:30:26.255Z,25.90
2023-01-02T11:35:40.490Z,46.10
2023-01-02T11:40:59.800Z,47.20
2023-01-02T11:46:10.828Z,12.60
2023-01-02T11:51:20.100Z,14.20
2023-01-02T11:56:33.598Z,14.60
2023-01-02T12:01:53.560Z,47.30
2023-01-02T12:07:18.689Z,37.80
2023-01-02T12:12:47.593Z,14.60
2023-01-02T12:18:07.913Z,18.30
2023-01-02T12:23:38.886Z,14.90
2023-01-02T12:29:47.117Z,13.70
2023-01-02T12:35:06.634Z,17.30
2023-01-02T12:40:35.889Z,16.30
2023-01-02T12:45:53.138Z,11.60
2023-01-02T12:51:14.172Z,16.90
2023-01-02T12:56:34.329Z,16.90
2023-01-02T13:01:47.313Z,16.90
2023-01-02T13:06:59.103Z,22.50
2023-01-02T13:12:11.388Z,24.50
2023-01-02T13:17:39.034Z,19.20
2023-01-02T13:22:55.760Z,14.50
2023-01-02T13:28:08.113Z,26.40
2023-01-02T13:33:29.323Z,25.10
2023-01-02T13:43:47.943Z,15.90
2023-01-02T13:48:59.245Z,142.30
2023-01-02T13:54:21.115Z,71.00
2023-01-02T13:59:42.228Z,78.90
2023-01-02T14:04:50.328Z,102.00
2023-01-02T14:10:26.835Z,203.80
2023-01-02T14:16:21.294Z,159.30
2023-01-02T14:21:37.217Z,125.20
2023-01-02T14:26:54.880Z,84.90
2023-01-02T14:32:08.848Z,51.40
2023-01-02T14:37:30.823Z,28.10
2023-01-02T14:42:57.487Z,74.80
2023-01-02T14:48:10.940Z,34.20
2023-01-02T14:53:23.971Z,23.20
2023-01-02T14:58:40.115Z,20.30
2023-01-02T15:03:55.370Z,26.80
2023-01-02T15:09:08.072Z,19.20
2023-01-02T15:14:23.836Z,32.20
2023-01-02T15:19:34.188Z,139.40
2023-01-02T15:24:47.427Z,140.60
2023-01-02T15:29:56.601Z,207.70
2023-01-02T15:35:20.932Z,109.30
2023-01-02T15:40:32.375Z,62.90
2023-01-02T15:50:47.731Z,51.90
2023-01-02T15:55:54.969Z,39.00
2023-01-02T16:01:19.507Z,41.10
2023-01-02T16:06:31.900Z,51.60
2023-01-02T16:11:49.609Z,37.50
2023-01-02T16:17:04.763Z,86.50
2023-01-02T16:22:25.539Z,65.90
2023-01-02T16:27:40.346Z,69.40
2023-01-02T16:32:53.011Z,133.70
2023-01-02T16:38:06.445Z,160.10
2023-01-02T16:43:15.934Z,106.90
2023-01-02T16:48:25.685Z,87.00
2023-01-02T16:53:34.898Z,89.20
2023-01-02T16:58:42.834Z,82.80
2023-01-02T17:03:53.627Z,138.30
2023-01-02T17:09:00.759Z,113.10
2023-01-02T17:14:07.656Z,66.60
2023-01-02T17:19:14.538Z,71.60
2023-01-02T17:24:22.716Z,89.50
2023-01-02T17:29:31.691Z,49.80
2023-01-02T17:34:39.003Z,75.30
2023-01-02T17:39:47.889Z,54.50
2023-01-02T17:44:54.831Z,115.40
2023-01-02T17:50:01.984Z,292.60
2023-01-02T17:55:10.506Z,155.30
2023-01-02T18:00:23.284Z,120.80
2023-01-02T18:05:31.521Z,85.50
2023-01-02T18:10:40.100Z,66.90
2023-01-02T18:15:47.047Z,62.40
2023-01-02T18:20:55.751Z,50.10
2023-01-02T18:26:03.562Z,47.70
2023-01-02T18:31:19.184Z,45.20
2023-01-02T18:36:27.813Z,52.00
2023-01-02T18:41:37.241Z,42.90
2023-01-02T18:47:03.270Z,53.10
2023-01-02T18:52:26.964Z,53.20
2023-01-02T19:03:01.113Z,93.30
2023-01-02T19:08:19.478Z,73.90
2023-01-02T19:13:36.003Z,57.70
2023-01-02T19:18:58.306Z,91.20
2023-01-02T19:24:18.676Z,44.10
2023-01-02T19:29:27.638Z,41.30
2023-01-02T19:34:46.025Z,32.80
2023-01-02T19:39:56.850Z,23.10
2023-01-02T19:45:06.264Z,20.20
2023-01-02T19:50:53.945Z,19.10
2023-01-02T19:56:04.783Z,20.40
2023-01-02T20:01:12.824Z,26.40
2023-01-02T20:06:20.109Z,23.20
2023-01-02T20:11:45.284Z,18.80
2023-01-02T20:16:53.236Z,17.80
2023-01-02T20:22:00.857Z,19.20
2023-01-02T20:27:08.383Z,16.00
2023-01-02T20:32:15.868Z,15.70
2023-01-02T20:37:23.223Z,18.60
2023-01-02T20:42:30.475Z,17.90
2023-01-02T20:47:37.533Z,19.90
2023-01-02T20:52:44.860Z,13.60
2023-01-02T20:57:53.382Z,19.60
2023-01-02T21:03:01.354Z,13.20
2023-01-02T21:08:09.262Z,15.20
2023-01-02T21:13:16.350Z,14.30
2023-01-02T21:18:26.501Z,14.40
2023-01-02T21:23:35.526Z,17.20
2023-01-02T21:28:44.117Z,15.90
2023-01-02T21:33:51.353Z,19.00
2023-01-02T21:38:59.210Z,18.20
2023-01-02T21:44:06.390Z,23.20
2023-01-02T21:49:13.404Z,20.60
2023-01-02T21:54:20.764Z,15.40
2023-01-02T21:59:28.285Z,15.50
2023-01-02T22:04:37.122Z,16.90
2023-01-02T22:09:44.510Z,16.40
2023-01-02T22:14:51.615Z,17.40
2023-01-02T22:19:58.709Z,14.70
2023-01-02T22:25:06.392Z,23.00
2023-01-02T22:30:21.967Z,23.10
2023-01-02T22:35:31.896Z,17.60
2023-01-02T22:40:38.834Z,18.80
2023-01-02T22:45:48.723Z,34.10
2023-01-02T22:50:57.925Z,47.50
2023-01-02T22:56:12.818Z,28.10
2023-01-02T23:01:24.265Z,28.90
2023-01-02T23:11:37.234Z,39.90
2023-01-02T23:17:02.124Z,18.20
2023-01-02T23:22:09.073Z,29.10
2023-01-02T23:27:15.960Z,20.10
2023-01-02T23:32:22.929Z,19.50
2023-01-02T23:37:29.897Z,16.90
2023-01-02T23:42:36.866Z,13.80
2023-01-02T23:47:43.834Z,17.70
2023-01-02T23:52:50.753Z,17.40
2023-01-02T23:57:57.615Z,14.90
